sensor_id;sensor_type;location;lat;lon;timestamp;temperature;humidity
12006;DHT22;6062;47.294;12.182;2023-05-10T00:00:13;10.30;60.60
12006;DHT22;6062;47.294;12.182;2023-05-10T00:02:39;10.30;60.60
12006;DHT22;6062;47.294;12.182;2023-05-10T00:05:06;10.20;60.60
12006;DHT22;6062;47.294;12.182;2023-05-10T00:07:32;10.20;60.60
12006;DHT22;6062;47.294;12.182;2023-05-10T00:09:58;10.10;60.70
12006;DHT22;6062;47.294;12.182;2023-05-10T00:12:23;10.10;60.70
12006;DHT22;6062;47.294;12.182;2023-05-10T00:14:49;10.00;60.70
12006;DHT22;6062;47.294;12.182;2023-05-10T00:17:15;10.00;60.80
12006;DHT22;6062;47.294;12.182;2023-05-10T00:19:40;10.00;61.00
12006;DHT22;6062;47.294;12.182;2023-05-10T00:22:06;9.90;61.10
12006;DHT22;6062;47.294;12.182;2023-05-10T00:24:32;9.80;61.20
12006;DHT22;6062;47.294;12.182;2023-05-10T00:26:58;9.80;61.40
12006;DHT22;6062;47.294;12.182;2023-05-10T00:29:23;9.70;61.50
12006;DHT22;6062;47.294;12.182;2023-05-10T00:31:49;9.70;61.60
12006;DHT22;6062;47.294;12.182;2023-05-10T00:34:15;9.60;61.80
12006;DHT22;6062;47.294;12.182;2023-05-10T00:36:40;9.60;61.80
12006;DHT22;6062;47.294;12.182;2023-05-10T00:39:06;9.60;61.90
12006;DHT22;6062;47.294;12.182;2023-05-10T00:41:33;9.50;62.10
12006;DHT22;6062;47.294;12.182;2023-05-10T00:43:59;9.50;62.20
12006;DHT22;6062;47.294;12.182;2023-05-10T00:46:25;9.50;62.30
12006;DHT22;6062;47.294;12.182;2023-05-10T00:48:51;9.50;62.30
12006;DHT22;6062;47.294;12.182;2023-05-10T00:51:17;9.40;62.30
12006;DHT22;6062;47.294;12.182;2023-05-10T00:53:45;9.40;62.40
12006;DHT22;6062;47.294;12.182;2023-05-10T00:56:12;9.30;62.40
12006;DHT22;6062;47.294;12.182;2023-05-10T00:58:41;9.30;63.20
12006;DHT22;6062;47.294;12.182;2023-05-10T01:01:08;9.30;62.60
12006;DHT22;6062;47.294;12.182;2023-05-10T01:03:35;9.30;62.70
12006;DHT22;6062;47.294;12.182;2023-05-10T01:06:01;9.20;62.80
12006;DHT22;6062;47.294;12.182;2023-05-10T01:08:28;9.20;62.80
12006;DHT22;6062;47.294;12.182;2023-05-10T01:10:54;9.10;63.00
12006;DHT22;6062;47.294;12.182;2023-05-10T01:13:41;9.20;63.00
12006;DHT22;6062;47.294;12.182;2023-05-10T01:16:08;9.10;63.20
12006;DHT22;6062;47.294;12.182;2023-05-10T01:18:38;9.10;63.00
12006;DHT22;6062;47.294;12.182;2023-05-10T01:21:19;9.10;63.30
12006;DHT22;6062;47.294;12.182;2023-05-10T01:24:46;9.10;63.40
12006;DHT22;6062;47.294;12.182;2023-05-10T01:36:19;9.00;63.50
12006;DHT22;6062;47.294;12.182;2023-05-10T01:47:27;9.00;63.80
12006;DHT22;6062;47.294;12.182;2023-05-10T01:49:55;8.90;64.30
12006;DHT22;6062;47.294;12.182;2023-05-10T01:52:28;8.90;64.10
12006;DHT22;6062;47.294;12.182;2023-05-10T01:55:04;8.90;64.40
12006;DHT22;6062;47.294;12.182;2023-05-10T01:57:36;8.90;64.60
12006;DHT22;6062;47.294;12.182;2023-05-10T02:00:06;8.90;64.60
12006;DHT22;6062;47.294;12.182;2023-05-10T02:02:37;8.90;64.50
12006;DHT22;6062;47.294;12.182;2023-05-10T02:05:05;8.90;64.50
12006;DHT22;6062;47.294;12.182;2023-05-10T02:07:35;8.90;64.50
12006;DHT22;6062;47.294;12.182;2023-05-10T02:10:06;8.90;64.60
12006;DHT22;6062;47.294;12.182;2023-05-10T02:12:42;8.80;64.50
12006;DHT22;6062;47.294;12.182;2023-05-10T02:15:11;8.80;64.70
12006;DHT22;6062;47.294;12.182;2023-05-10T02:17:42;8.80;64.70
12006;DHT22;6062;47.294;12.182;2023-05-10T02:20:09;8.80;64.80
12006;DHT22;6062;47.294;12.182;2023-05-10T02:22:37;8.80;64.80
12006;DHT22;6062;47.294;12.182;2023-05-10T02:25:06;8.80;64.80
12006;DHT22;6062;47.294;12.182;2023-05-10T02:27:34;8.70;64.90
12006;DHT22;6062;47.294;12.182;2023-05-10T02:30:02;8.70;64.80
12006;DHT22;6062;47.294;12.182;2023-05-10T02:32:31;8.70;64.70
12006;DHT22;6062;47.294;12.182;2023-05-10T02:34:57;8.70;64.80
12006;DHT22;6062;47.294;12.182;2023-05-10T02:37:26;8.60;64.80
12006;DHT22;6062;47.294;12.182;2023-05-10T02:39:55;8.60;64.90
12006;DHT22;6062;47.294;12.182;2023-05-10T02:42:26;8.60;65.10
12006;DHT22;6062;47.294;12.182;2023-05-10T02:45:04;8.60;66.00
12006;DHT22;6062;47.294;12.182;2023-05-10T02:47:33;8.50;65.40
12006;DHT22;6062;47.294;12.182;2023-05-10T02:49:59;8.50;65.70
12006;DHT22;6062;47.294;12.182;2023-05-10T02:52:28;8.50;66.10
12006;DHT22;6062;47.294;12.182;2023-05-10T02:55:00;8.50;66.40
12006;DHT22;6062;47.294;12.182;2023-05-10T02:57:33;8.40;66.60
12006;DHT22;6062;47.294;12.182;2023-05-10T03:00:01;8.40;66.70
12006;DHT22;6062;47.294;12.182;2023-05-10T03:02:28;8.40;66.70
12006;DHT22;6062;47.294;12.182;2023-05-10T03:04:55;8.30;66.80
12006;DHT22;6062;47.294;12.182;2023-05-10T03:07:21;8.30;67.20
12006;DHT22;6062;47.294;12.182;2023-05-10T03:09:50;8.30;67.50
12006;DHT22;6062;47.294;12.182;2023-05-10T03:15:37;8.30;68.40
12006;DHT22;6062;47.294;12.182;2023-05-10T03:18:22;8.30;68.10
12006;DHT22;6062;47.294;12.182;2023-05-10T03:20:57;8.30;68.30
12006;DHT22;6062;47.294;12.182;2023-05-10T03:23:41;8.30;68.20
12006;DHT22;6062;47.294;12.182;2023-05-10T03:26:09;8.30;68.30
12006;DHT22;6062;47.294;12.182;2023-05-10T03:28:42;8.30;68.10
12006;DHT22;6062;47.294;12.182;2023-05-10T03:31:09;8.30;68.00
12006;DHT22;6062;47.294;12.182;2023-05-10T03:33:34;8.30;68.00
12006;DHT22;6062;47.294;12.182;2023-05-10T03:36:00;8.30;68.10
12006;DHT22;6062;47.294;12.182;2023-05-10T03:38:26;8.30;68.00
12006;DHT22;6062;47.294;12.182;2023-05-10T03:40:51;8.30;67.80
12006;DHT22;6062;47.294;12.182;2023-05-10T03:43:17;8.30;67.60
12006;DHT22;6062;47.294;12.182;2023-05-10T03:45:43;8.30;67.30
12006;DHT22;6062;47.294;12.182;2023-05-10T03:48:08;8.30;67.20
12006;DHT22;6062;47.294;12.182;2023-05-10T03:50:34;8.30;67.10
12006;DHT22;6062;47.294;12.182;2023-05-10T03:53:00;8.30;67.00
12006;DHT22;6062;47.294;12.182;2023-05-10T03:55:25;8.20;66.90
12006;DHT22;6062;47.294;12.182;2023-05-10T03:57:51;8.20;66.90
12006;DHT22;6062;47.294;12.182;2023-05-10T04:00:19;8.20;66.90
12006;DHT22;6062;47.294;12.182;2023-05-10T04:02:45;8.20;67.00
12006;DHT22;6062;47.294;12.182;2023-05-10T04:05:11;8.20;67.20
12006;DHT22;6062;47.294;12.182;2023-05-10T04:07:36;8.20;67.40
12006;DHT22;6062;47.294;12.182;2023-05-10T04:10:02;8.20;67.20
12006;DHT22;6062;47.294;12.182;2023-05-10T04:12:28;8.20;67.10
12006;DHT22;6062;47.294;12.182;2023-05-10T04:14:54;8.10;67.30
12006;DHT22;6062;47.294;12.182;2023-05-10T04:17:20;8.20;67.40
12006;DHT22;6062;47.294;12.182;2023-05-10T04:19:46;8.10;67.50
12006;DHT22;6062;47.294;12.182;2023-05-10T04:22:11;8.10;67.50
12006;DHT22;6062;47.294;12.182;2023-05-10T04:24:37;8.20;67.50
12006;DHT22;6062;47.294;12.182;2023-05-10T04:27:03;8.10;67.60
12006;DHT22;6062;47.294;12.182;2023-05-10T04:29:28;8.10;67.50
12006;DHT22;6062;47.294;12.182;2023-05-10T04:31:54;8.10;67.50
12006;DHT22;6062;47.294;12.182;2023-05-10T04:34:22;8.10;67.50
12006;DHT22;6062;47.294;12.182;2023-05-10T04:36:47;8.10;67.50
12006;DHT22;6062;47.294;12.182;2023-05-10T04:39:13;8.10;67.50
12006;DHT22;6062;47.294;12.182;2023-05-10T04:41:39;8.10;67.50
12006;DHT22;6062;47.294;12.182;2023-05-10T04:44:05;8.10;67.60
12006;DHT22;6062;47.294;12.182;2023-05-10T04:46:31;8.10;67.70
12006;DHT22;6062;47.294;12.182;2023-05-10T04:48:57;8.10;67.70
12006;DHT22;6062;47.294;12.182;2023-05-10T04:51:22;8.10;67.70
12006;DHT22;6062;47.294;12.182;2023-05-10T04:53:48;8.10;67.80
12006;DHT22;6062;47.294;12.182;2023-05-10T04:56:14;8.20;68.50
12006;DHT22;6062;47.294;12.182;2023-05-10T04:58:40;8.20;67.80
12006;DHT22;6062;47.294;12.182;2023-05-10T05:01:06;8.20;67.80
12006;DHT22;6062;47.294;12.182;2023-05-10T05:03:33;8.20;67.90
12006;DHT22;6062;47.294;12.182;2023-05-10T05:05:59;8.20;67.80
12006;DHT22;6062;47.294;12.182;2023-05-10T05:08:25;8.20;67.80
12006;DHT22;6062;47.294;12.182;2023-05-10T05:10:51;8.30;67.90
12006;DHT22;6062;47.294;12.182;2023-05-10T05:13:16;8.30;67.80
12006;DHT22;6062;47.294;12.182;2023-05-10T05:15:42;8.30;67.80
12006;DHT22;6062;47.294;12.182;2023-05-10T05:18:08;8.40;67.80
12006;DHT22;6062;47.294;12.182;2023-05-10T05:20:34;8.40;67.90
12006;DHT22;6062;47.294;12.182;2023-05-10T05:23:00;8.40;68.40
12006;DHT22;6062;47.294;12.182;2023-05-10T05:25:26;8.40;67.70
12006;DHT22;6062;47.294;12.182;2023-05-10T05:27:52;8.50;67.60
12006;DHT22;6062;47.294;12.182;2023-05-10T05:30:17;8.50;68.10
12006;DHT22;6062;47.294;12.182;2023-05-10T05:32:44;8.50;68.00
12006;DHT22;6062;47.294;12.182;2023-05-10T05:35:10;8.50;67.30
12006;DHT22;6062;47.294;12.182;2023-05-10T05:37:36;8.50;67.30
12006;DHT22;6062;47.294;12.182;2023-05-10T05:40:02;8.60;67.30
12006;DHT22;6062;47.294;12.182;2023-05-10T05:42:28;8.60;67.30
12006;DHT22;6062;47.294;12.182;2023-05-10T05:44:56;8.60;67.30
12006;DHT22;6062;47.294;12.182;2023-05-10T05:47:21;8.70;67.40
12006;DHT22;6062;47.294;12.182;2023-05-10T05:49:47;8.70;67.50
12006;DHT22;6062;47.294;12.182;2023-05-10T05:52:13;8.80;67.60
12006;DHT22;6062;47.294;12.182;2023-05-10T05:54:38;8.80;67.60
12006;DHT22;6062;47.294;12.182;2023-05-10T05:57:05;8.90;67.50
12006;DHT22;6062;47.294;12.182;2023-05-10T05:59:30;8.90;67.30
12006;DHT22;6062;47.294;12.182;2023-05-10T06:01:56;9.00;67.20
12006;DHT22;6062;47.294;12.182;2023-05-10T06:04:22;9.00;66.90
12006;DHT22;6062;47.294;12.182;2023-05-10T06:06:47;9.10;66.70
12006;DHT22;6062;47.294;12.182;2023-05-10T06:09:13;9.10;66.60
12006;DHT22;6062;47.294;12.182;2023-05-10T06:11:39;9.10;66.40
12006;DHT22;6062;47.294;12.182;2023-05-10T06:14:05;9.10;66.20
12006;DHT22;6062;47.294;12.182;2023-05-10T06:16:33;9.20;66.10
12006;DHT22;6062;47.294;12.182;2023-05-10T06:19:00;9.20;66.10
12006;DHT22;6062;47.294;12.182;2023-05-10T06:21:26;9.20;66.00
12006;DHT22;6062;47.294;12.182;2023-05-10T06:23:51;9.20;65.90
12006;DHT22;6062;47.294;12.182;2023-05-10T06:26:17;9.30;65.80
12006;DHT22;6062;47.294;12.182;2023-05-10T06:28:43;9.30;65.70
12006;DHT22;6062;47.294;12.182;2023-05-10T06:31:08;9.30;65.70
12006;DHT22;6062;47.294;12.182;2023-05-10T06:33:36;9.30;65.50
12006;DHT22;6062;47.294;12.182;2023-05-10T06:36:02;9.30;65.50
12006;DHT22;6062;47.294;12.182;2023-05-10T06:38:28;9.30;65.50
12006;DHT22;6062;47.294;12.182;2023-05-10T06:40:54;9.40;65.60
12006;DHT22;6062;47.294;12.182;2023-05-10T06:43:19;9.40;65.60
12006;DHT22;6062;47.294;12.182;2023-05-10T06:45:45;9.40;65.50
12006;DHT22;6062;47.294;12.182;2023-05-10T06:48:11;9.40;65.30
12006;DHT22;6062;47.294;12.182;2023-05-10T06:50:37;9.40;65.20
12006;DHT22;6062;47.294;12.182;2023-05-10T06:53:02;9.40;65.10
12006;DHT22;6062;47.294;12.182;2023-05-10T06:55:29;9.50;64.90
12006;DHT22;6062;47.294;12.182;2023-05-10T06:57:54;9.50;64.90
12006;DHT22;6062;47.294;12.182;2023-05-10T07:00:20;9.50;64.90
12006;DHT22;6062;47.294;12.182;2023-05-10T07:02:46;9.50;65.00
12006;DHT22;6062;47.294;12.182;2023-05-10T07:05:12;9.50;65.00
12006;DHT22;6062;47.294;12.182;2023-05-10T07:07:39;9.50;65.10
12006;DHT22;6062;47.294;12.182;2023-05-10T07:10:05;9.60;65.10
12006;DHT22;6062;47.294;12.182;2023-05-10T07:12:32;9.60;65.00
12006;DHT22;6062;47.294;12.182;2023-05-10T07:14:58;9.60;65.00
12006;DHT22;6062;47.294;12.182;2023-05-10T07:17:24;9.60;64.90
12006;DHT22;6062;47.294;12.182;2023-05-10T07:19:50;9.70;65.00
12006;DHT22;6062;47.294;12.182;2023-05-10T07:22:16;9.70;65.00
12006;DHT22;6062;47.294;12.182;2023-05-10T07:24:42;9.70;65.00
12006;DHT22;6062;47.294;12.182;2023-05-10T07:27:08;9.80;65.10
12006;DHT22;6062;47.294;12.182;2023-05-10T07:29:34;9.80;65.10
12006;DHT22;6062;47.294;12.182;2023-05-10T07:32:00;9.90;65.30
12006;DHT22;6062;47.294;12.182;2023-05-10T07:34:26;9.90;65.30
12006;DHT22;6062;47.294;12.182;2023-05-10T07:36:53;10.00;65.20
12006;DHT22;6062;47.294;12.182;2023-05-10T07:39:18;10.10;65.20
12006;DHT22;6062;47.294;12.182;2023-05-10T07:41:45;10.10;65.10
12006;DHT22;6062;47.294;12.182;2023-05-10T07:44:11;10.20;64.70
12006;DHT22;6062;47.294;12.182;2023-05-10T07:46:37;10.30;64.40
12006;DHT22;6062;47.294;12.182;2023-05-10T07:49:03;10.30;64.00
12006;DHT22;6062;47.294;12.182;2023-05-10T07:51:29;10.30;64.00
12006;DHT22;6062;47.294;12.182;2023-05-10T07:53:55;10.40;63.80
12006;DHT22;6062;47.294;12.182;2023-05-10T07:56:23;10.50;63.80
12006;DHT22;6062;47.294;12.182;2023-05-10T07:59:01;10.50;63.90
12006;DHT22;6062;47.294;12.182;2023-05-10T08:01:33;10.50;63.80
12006;DHT22;6062;47.294;12.182;2023-05-10T08:04:00;10.60;63.20
12006;DHT22;6062;47.294;12.182;2023-05-10T08:06:27;10.60;63.50
12006;DHT22;6062;47.294;12.182;2023-05-10T08:08:55;10.60;63.30
12006;DHT22;6062;47.294;12.182;2023-05-10T08:11:21;10.60;63.50
12006;DHT22;6062;47.294;12.182;2023-05-10T08:13:48;10.60;63.60
12006;DHT22;6062;47.294;12.182;2023-05-10T08:16:15;10.70;63.40
12006;DHT22;6062;47.294;12.182;2023-05-10T08:18:45;10.70;62.90
12006;DHT22;6062;47.294;12.182;2023-05-10T08:21:12;10.80;62.60
12006;DHT22;6062;47.294;12.182;2023-05-10T08:23:39;10.80;62.50
12006;DHT22;6062;47.294;12.182;2023-05-10T08:26:04;10.80;62.50
12006;DHT22;6062;47.294;12.182;2023-05-10T08:28:31;10.80;62.20
12006;DHT22;6062;47.294;12.182;2023-05-10T08:30:57;10.90;62.30
12006;DHT22;6062;47.294;12.182;2023-05-10T08:33:22;10.90;62.90
12006;DHT22;6062;47.294;12.182;2023-05-10T08:35:48;10.90;63.20
12006;DHT22;6062;47.294;12.182;2023-05-10T08:38:14;11.10;63.20
12006;DHT22;6062;47.294;12.182;2023-05-10T08:40:42;11.20;63.50
12006;DHT22;6062;47.294;12.182;2023-05-10T08:43:10;11.30;63.40
12006;DHT22;6062;47.294;12.182;2023-05-10T08:45:43;11.50;63.60
12006;DHT22;6062;47.294;12.182;2023-05-10T08:48:11;11.70;63.20
12006;DHT22;6062;47.294;12.182;2023-05-10T08:50:39;11.80;62.90
12006;DHT22;6062;47.294;12.182;2023-05-10T08:53:10;12.00;62.70
12006;DHT22;6062;47.294;12.182;2023-05-10T08:55:38;12.10;62.40
12006;DHT22;6062;47.294;12.182;2023-05-10T08:58:06;12.30;62.20
12006;DHT22;6062;47.294;12.182;2023-05-10T09:00:32;12.50;61.90
12006;DHT22;6062;47.294;12.182;2023-05-10T09:03:00;12.60;61.50
12006;DHT22;6062;47.294;12.182;2023-05-10T09:05:26;12.70;61.60
12006;DHT22;6062;47.294;12.182;2023-05-10T09:07:52;12.80;60.20
12006;DHT22;6062;47.294;12.182;2023-05-10T09:10:19;12.80;60.20
12006;DHT22;6062;47.294;12.182;2023-05-10T09:12:45;12.90;59.70
12006;DHT22;6062;47.294;12.182;2023-05-10T09:15:15;13.00;59.50
12006;DHT22;6062;47.294;12.182;2023-05-10T09:17:42;13.00;59.00
12006;DHT22;6062;47.294;12.182;2023-05-10T09:20:09;13.00;58.80
12006;DHT22;6062;47.294;12.182;2023-05-10T09:22:35;13.00;58.50
12006;DHT22;6062;47.294;12.182;2023-05-10T09:25:08;12.90;58.30
12006;DHT22;6062;47.294;12.182;2023-05-10T09:27:37;12.80;57.60
12006;DHT22;6062;47.294;12.182;2023-05-10T09:30:07;12.70;57.80
12006;DHT22;6062;47.294;12.182;2023-05-10T09:32:41;12.60;57.60
12006;DHT22;6062;47.294;12.182;2023-05-10T09:35:12;12.40;57.60
12006;DHT22;6062;47.294;12.182;2023-05-10T09:37:43;12.20;57.70
12006;DHT22;6062;47.294;12.182;2023-05-10T09:40:16;12.00;58.00
12006;DHT22;6062;47.294;12.182;2023-05-10T09:43:01;11.80;58.50
12006;DHT22;6062;47.294;12.182;2023-05-10T09:45:30;11.50;59.00
12006;DHT22;6062;47.294;12.182;2023-05-10T09:47:57;11.40;59.20
12006;DHT22;6062;47.294;12.182;2023-05-10T09:50:25;11.20;59.40
12006;DHT22;6062;47.294;12.182;2023-05-10T09:52:56;11.00;59.70
12006;DHT22;6062;47.294;12.182;2023-05-10T09:55:46;10.90;59.80
12006;DHT22;6062;47.294;12.182;2023-05-10T09:58:12;10.70;59.90
12006;DHT22;6062;47.294;12.182;2023-05-10T10:00:41;10.70;60.70
12006;DHT22;6062;47.294;12.182;2023-05-10T10:03:19;10.60;60.80
12006;DHT22;6062;47.294;12.182;2023-05-10T10:05:47;10.50;61.10
12006;DHT22;6062;47.294;12.182;2023-05-10T10:08:14;10.50;61.10
12006;DHT22;6062;47.294;12.182;2023-05-10T10:10:41;10.50;61.40
12006;DHT22;6062;47.294;12.182;2023-05-10T10:13:09;10.60;61.50
12006;DHT22;6062;47.294;12.182;2023-05-10T10:15:35;10.60;61.60
12006;DHT22;6062;47.294;12.182;2023-05-10T10:18:01;10.70;61.50
12006;DHT22;6062;47.294;12.182;2023-05-10T10:20:29;10.80;61.10
12006;DHT22;6062;47.294;12.182;2023-05-10T10:22:55;10.80;60.50
12006;DHT22;6062;47.294;12.182;2023-05-10T10:25:21;10.80;60.20
12006;DHT22;6062;47.294;12.182;2023-05-10T10:36:02;10.40;60.20
12006;DHT22;6062;47.294;12.182;2023-05-10T10:41:33;10.20;61.90
12006;DHT22;6062;47.294;12.182;2023-05-10T10:50:06;10.40;63.30
12006;DHT22;6062;47.294;12.182;2023-05-10T10:52:35;10.60;64.00
12006;DHT22;6062;47.294;12.182;2023-05-10T10:55:08;10.70;63.90
12006;DHT22;6062;47.294;12.182;2023-05-10T10:57:47;10.90;64.00
12006;DHT22;6062;47.294;12.182;2023-05-10T11:08:18;11.50;61.20
12006;DHT22;6062;47.294;12.182;2023-05-10T11:13:42;11.50;60.80
12006;DHT22;6062;47.294;12.182;2023-05-10T11:16:12;11.50;60.70
12006;DHT22;6062;47.294;12.182;2023-05-10T11:19:03;11.40;60.60
12006;DHT22;6062;47.294;12.182;2023-05-10T11:21:33;11.30;60.80
12006;DHT22;6062;47.294;12.182;2023-05-10T11:24:13;11.30;60.90
12006;DHT22;6062;47.294;12.182;2023-05-10T11:26:43;11.30;61.30
12006;DHT22;6062;47.294;12.182;2023-05-10T11:29:09;11.30;61.40
12006;DHT22;6062;47.294;12.182;2023-05-10T11:31:42;11.40;61.10
12006;DHT22;6062;47.294;12.182;2023-05-10T11:34:25;11.40;60.60
12006;DHT22;6062;47.294;12.182;2023-05-10T11:36:54;11.40;60.50
12006;DHT22;6062;47.294;12.182;2023-05-10T11:39:22;11.40;61.20
12006;DHT22;6062;47.294;12.182;2023-05-10T11:41:51;11.40;61.80
12006;DHT22;6062;47.294;12.182;2023-05-10T11:44:17;11.50;62.50
12006;DHT22;6062;47.294;12.182;2023-05-10T11:46:43;11.60;62.80
12006;DHT22;6062;47.294;12.182;2023-05-10T11:49:08;11.70;63.00
12006;DHT22;6062;47.294;12.182;2023-05-10T11:51:35;11.80;63.10
12006;DHT22;6062;47.294;12.182;2023-05-10T11:54:06;11.90;63.00
12006;DHT22;6062;47.294;12.182;2023-05-10T11:56:34;12.10;63.00
12006;DHT22;6062;47.294;12.182;2023-05-10T11:58:59;12.20;62.80
12006;DHT22;6062;47.294;12.182;2023-05-10T12:01:27;12.40;62.40
12006;DHT22;6062;47.294;12.182;2023-05-10T12:03:55;12.50;62.20
12006;DHT22;6062;47.294;12.182;2023-05-10T12:06:30;12.60;61.30
12006;DHT22;6062;47.294;12.182;2023-05-10T12:08:57;12.80;60.60
12006;DHT22;6062;47.294;12.182;2023-05-10T12:11:28;12.90;60.10
12006;DHT22;6062;47.294;12.182;2023-05-10T12:13:54;12.90;59.20
12006;DHT22;6062;47.294;12.182;2023-05-10T12:16:23;12.90;58.70
12006;DHT22;6062;47.294;12.182;2023-05-10T12:18:51;12.90;58.60
12006;DHT22;6062;47.294;12.182;2023-05-10T12:21:21;12.90;58.40
12006;DHT22;6062;47.294;12.182;2023-05-10T12:23:50;12.90;58.60
12006;DHT22;6062;47.294;12.182;2023-05-10T12:26:17;12.90;57.70
12006;DHT22;6062;47.294;12.182;2023-05-10T12:28:46;12.80;57.50
12006;DHT22;6062;47.294;12.182;2023-05-10T12:31:12;12.70;57.10
12006;DHT22;6062;47.294;12.182;2023-05-10T12:33:44;12.60;56.70
12006;DHT22;6062;47.294;12.182;2023-05-10T12:36:15;12.40;56.60
12006;DHT22;6062;47.294;12.182;2023-05-10T12:38:46;12.10;56.80
12006;DHT22;6062;47.294;12.182;2023-05-10T12:41:16;11.80;56.90
12006;DHT22;6062;47.294;12.182;2023-05-10T12:43:44;11.50;57.10
12006;DHT22;6062;47.294;12.182;2023-05-10T12:46:15;11.20;57.60
12006;DHT22;6062;47.294;12.182;2023-05-10T12:48:43;10.90;58.40
12006;DHT22;6062;47.294;12.182;2023-05-10T12:51:10;10.70;58.60
12006;DHT22;6062;47.294;12.182;2023-05-10T12:53:38;10.50;58.60
12006;DHT22;6062;47.294;12.182;2023-05-10T12:56:05;10.30;59.00
12006;DHT22;6062;47.294;12.182;2023-05-10T12:58:31;10.20;59.70
12006;DHT22;6062;47.294;12.182;2023-05-10T13:00:58;10.00;60.20
12006;DHT22;6062;47.294;12.182;2023-05-10T13:03:24;9.90;60.50
12006;DHT22;6062;47.294;12.182;2023-05-10T13:05:50;9.70;60.60
12006;DHT22;6062;47.294;12.182;2023-05-10T13:08:16;9.60;61.10
12006;DHT22;6062;47.294;12.182;2023-05-10T13:10:41;9.40;61.10
12006;DHT22;6062;47.294;12.182;2023-05-10T13:13:07;9.30;61.60
12006;DHT22;6062;47.294;12.182;2023-05-10T13:15:34;9.10;62.00
12006;DHT22;6062;47.294;12.182;2023-05-10T13:18:00;8.90;62.60
12006;DHT22;6062;47.294;12.182;2023-05-10T13:20:26;8.70;62.90
12006;DHT22;6062;47.294;12.182;2023-05-10T13:22:52;8.50;63.20
12006;DHT22;6062;47.294;12.182;2023-05-10T13:25:18;8.30;63.80
12006;DHT22;6062;47.294;12.182;2023-05-10T13:27:44;8.20;64.60
12006;DHT22;6062;47.294;12.182;2023-05-10T13:30:10;8.10;65.10
12006;DHT22;6062;47.294;12.182;2023-05-10T13:32:39;8.00;65.30
12006;DHT22;6062;47.294;12.182;2023-05-10T13:35:05;8.00;65.40
12006;DHT22;6062;47.294;12.182;2023-05-10T13:37:31;7.90;65.70
12006;DHT22;6062;47.294;12.182;2023-05-10T13:40:00;7.90;66.00
12006;DHT22;6062;47.294;12.182;2023-05-10T13:42:26;7.80;66.40
12006;DHT22;6062;47.294;12.182;2023-05-10T13:44:52;7.80;66.50
12006;DHT22;6062;47.294;12.182;2023-05-10T13:47:18;7.80;66.60
12006;DHT22;6062;47.294;12.182;2023-05-10T13:49:44;7.80;67.10
12006;DHT22;6062;47.294;12.182;2023-05-10T13:52:09;7.80;67.10
12006;DHT22;6062;47.294;12.182;2023-05-10T13:54:38;7.80;67.10
12006;DHT22;6062;47.294;12.182;2023-05-10T13:57:04;7.80;66.80
12006;DHT22;6062;47.294;12.182;2023-05-10T13:59:30;7.80;66.70
12006;DHT22;6062;47.294;12.182;2023-05-10T14:01:59;7.80;66.60
12006;DHT22;6062;47.294;12.182;2023-05-10T14:04:29;7.70;66.70
12006;DHT22;6062;47.294;12.182;2023-05-10T14:06:55;7.70;66.90
12006;DHT22;6062;47.294;12.182;2023-05-10T14:09:22;7.60;67.00
12006;DHT22;6062;47.294;12.182;2023-05-10T14:11:47;7.60;67.40
12006;DHT22;6062;47.294;12.182;2023-05-10T14:14:13;7.60;68.00
12006;DHT22;6062;47.294;12.182;2023-05-10T14:16:43;7.70;68.60
12006;DHT22;6062;47.294;12.182;2023-05-10T14:19:11;7.80;68.70
12006;DHT22;6062;47.294;12.182;2023-05-10T14:21:37;7.90;68.30
12006;DHT22;6062;47.294;12.182;2023-05-10T14:24:03;8.00;68.00
12006;DHT22;6062;47.294;12.182;2023-05-10T14:26:30;8.10;67.70
12006;DHT22;6062;47.294;12.182;2023-05-10T14:28:56;8.10;67.60
12006;DHT22;6062;47.294;12.182;2023-05-10T14:31:21;8.10;66.90
12006;DHT22;6062;47.294;12.182;2023-05-10T14:33:49;8.10;66.90
12006;DHT22;6062;47.294;12.182;2023-05-10T14:36:15;8.10;66.70
12006;DHT22;6062;47.294;12.182;2023-05-10T14:38:41;8.00;66.70
12006;DHT22;6062;47.294;12.182;2023-05-10T14:41:07;8.00;67.10
12006;DHT22;6062;47.294;12.182;2023-05-10T14:43:33;8.00;67.00
12006;DHT22;6062;47.294;12.182;2023-05-10T14:45:58;8.00;67.10
12006;DHT22;6062;47.294;12.182;2023-05-10T14:48:24;8.00;67.40
12006;DHT22;6062;47.294;12.182;2023-05-10T14:50:50;8.00;67.60
12006;DHT22;6062;47.294;12.182;2023-05-10T14:53:17;8.00;67.70
12006;DHT22;6062;47.294;12.182;2023-05-10T14:55:43;8.10;68.00
12006;DHT22;6062;47.294;12.182;2023-05-10T14:58:09;8.10;68.30
12006;DHT22;6062;47.294;12.182;2023-05-10T15:00:35;8.20;67.80
12006;DHT22;6062;47.294;12.182;2023-05-10T15:03:01;8.30;67.30
12006;DHT22;6062;47.294;12.182;2023-05-10T15:05:27;8.30;66.80
12006;DHT22;6062;47.294;12.182;2023-05-10T15:07:53;8.20;66.50
12006;DHT22;6062;47.294;12.182;2023-05-10T15:10:18;8.20;66.50
12006;DHT22;6062;47.294;12.182;2023-05-10T15:12:44;8.10;66.50
12006;DHT22;6062;47.294;12.182;2023-05-10T15:15:10;8.10;66.60
12006;DHT22;6062;47.294;12.182;2023-05-10T15:17:35;8.00;66.70
12006;DHT22;6062;47.294;12.182;2023-05-10T15:20:02;8.00;66.70
12006;DHT22;6062;47.294;12.182;2023-05-10T15:22:30;7.90;66.40
12006;DHT22;6062;47.294;12.182;2023-05-10T15:24:57;7.80;66.40
12006;DHT22;6062;47.294;12.182;2023-05-10T15:27:25;7.70;66.40
12006;DHT22;6062;47.294;12.182;2023-05-10T15:29:51;7.60;66.50
12006;DHT22;6062;47.294;12.182;2023-05-10T15:32:17;7.50;66.70
12006;DHT22;6062;47.294;12.182;2023-05-10T15:34:43;7.40;67.00
12006;DHT22;6062;47.294;12.182;2023-05-10T15:37:08;7.40;67.30
12006;DHT22;6062;47.294;12.182;2023-05-10T15:39:35;7.30;67.50
12006;DHT22;6062;47.294;12.182;2023-05-10T15:42:00;7.30;67.80
12006;DHT22;6062;47.294;12.182;2023-05-10T15:44:26;7.30;67.90
12006;DHT22;6062;47.294;12.182;2023-05-10T15:46:52;7.30;67.80
12006;DHT22;6062;47.294;12.182;2023-05-10T15:49:18;7.30;67.70
12006;DHT22;6062;47.294;12.182;2023-05-10T15:51:43;7.30;67.80
12006;DHT22;6062;47.294;12.182;2023-05-10T15:54:09;7.30;68.00
12006;DHT22;6062;47.294;12.182;2023-05-10T15:56:35;7.40;68.00
12006;DHT22;6062;47.294;12.182;2023-05-10T15:59:01;7.40;68.10
12006;DHT22;6062;47.294;12.182;2023-05-10T16:01:28;7.40;67.80
12006;DHT22;6062;47.294;12.182;2023-05-10T16:03:55;7.50;67.80
12006;DHT22;6062;47.294;12.182;2023-05-10T16:06:20;7.50;67.70
12006;DHT22;6062;47.294;12.182;2023-05-10T16:08:46;7.60;67.70
12006;DHT22;6062;47.294;12.182;2023-05-10T16:11:12;7.60;67.60
12006;DHT22;6062;47.294;12.182;2023-05-10T16:13:37;7.60;67.40
12006;DHT22;6062;47.294;12.182;2023-05-10T16:16:03;7.60;67.00
12006;DHT22;6062;47.294;12.182;2023-05-10T16:18:29;7.60;66.90
12006;DHT22;6062;47.294;12.182;2023-05-10T16:20:55;7.60;66.90
12006;DHT22;6062;47.294;12.182;2023-05-10T16:23:21;7.60;66.90
12006;DHT22;6062;47.294;12.182;2023-05-10T16:25:47;7.60;66.70
12006;DHT22;6062;47.294;12.182;2023-05-10T16:28:12;7.60;66.70
12006;DHT22;6062;47.294;12.182;2023-05-10T16:30:38;7.60;66.70